sensor_id;sensor_type;location;lat;lon;timestamp;pressure;altitude;pressure_sealevel;temperature;humidity
13952;BME280;39535;52.192;9.886;2023-04-25T00:01:21;99558.88;;;6.84;91.90
13952;BME280;39535;52.192;9.886;2023-04-25T00:03:49;99549.06;;;7.00;91.72
13952;BME280;39535;52.192;9.886;2023-04-25T00:06:15;99550.75;;;7.03;91.28
13952;BME280;39535;52.192;9.886;2023-04-25T00:08:42;99553.97;;;7.15;90.29
13952;BME280;39535;52.192;9.886;2023-04-25T00:11:09;99567.00;;;7.12;90.36
13952;BME280;39535;52.192;9.886;2023-04-25T00:13:36;99582.69;;;7.05;89.51
13952;BME280;39535;52.192;9.886;2023-04-25T00:16:02;99601.66;;;7.10;89.20
13952;BME280;39535;52.192;9.886;2023-04-25T00:18:29;99622.31;;;7.14;88.78
13952;BME280;39535;52.192;9.886;2023-04-25T00:20:59;99632.59;;;7.19;88.67
13952;BME280;39535;52.192;9.886;2023-04-25T00:23:25;99649.19;;;7.12;87.79
13952;BME280;39535;52.192;9.886;2023-04-25T00:25:52;99659.72;;;7.03;87.32
13952;BME280;39535;52.192;9.886;2023-04-25T00:28:18;99658.03;;;7.00;88.42
13952;BME280;39535;52.192;9.886;2023-04-25T00:30:45;99654.41;;;7.10;88.24
13952;BME280;39535;52.192;9.886;2023-04-25T00:33:11;99657.94;;;7.05;88.30
13952;BME280;39535;52.192;9.886;2023-04-25T00:35:38;99644.97;;;7.06;88.11
13952;BME280;39535;52.192;9.886;2023-04-25T00:38:06;99650.16;;;7.05;88.30
13952;BME280;39535;52.192;9.886;2023-04-25T00:40:32;99648.41;;;7.07;88.58
13952;BME280;39535;52.192;9.886;2023-04-25T00:42:59;99631.22;;;7.00;89.14
13952;BME280;39535;52.192;9.886;2023-04-25T00:45:28;99633.06;;;6.94;89.91
13952;BME280;39535;52.192;9.886;2023-04-25T00:47:55;99617.38;;;6.99;89.49
13952;BME280;39535;52.192;9.886;2023-04-25T00:50:22;99610.69;;;6.87;89.84
13952;BME280;39535;52.192;9.886;2023-04-25T00:52:49;99608.19;;;6.81;90.02
13952;BME280;39535;52.192;9.886;2023-04-25T00:55:16;99602.31;;;6.70;91.42
13952;BME280;39535;52.192;9.886;2023-04-25T00:57:43;99584.91;;;6.78;91.79
13952;BME280;39535;52.192;9.886;2023-04-25T01:00:10;99577.25;;;6.70;91.42
13952;BME280;39535;52.192;9.886;2023-04-25T01:02:39;99578.19;;;6.66;91.28
13952;BME280;39535;52.192;9.886;2023-04-25T01:05:06;99567.53;;;6.82;91.47
13952;BME280;39535;52.192;9.886;2023-04-25T01:07:33;99569.25;;;6.83;91.80
13952;BME280;39535;52.192;9.886;2023-04-25T01:10:00;99572.22;;;6.61;91.89
13952;BME280;39535;52.192;9.886;2023-04-25T01:12:29;99552.81;;;6.84;92.21
13952;BME280;39535;52.192;9.886;2023-04-25T01:14:56;99544.97;;;6.87;92.08
13952;BME280;39535;52.192;9.886;2023-04-25T01:17:22;99539.56;;;6.97;92.41
13952;BME280;39535;52.192;9.886;2023-04-25T01:19:49;99546.72;;;6.88;91.94
13952;BME280;39535;52.192;9.886;2023-04-25T01:22:17;99544.81;;;6.96;91.54
13952;BME280;39535;52.192;9.886;2023-04-25T01:24:44;99550.75;;;7.03;91.72
13952;BME280;39535;52.192;9.886;2023-04-25T01:27:11;99557.59;;;7.05;91.35
13952;BME280;39535;52.192;9.886;2023-04-25T01:29:38;99561.38;;;6.87;91.60
13952;BME280;39535;52.192;9.886;2023-04-25T01:32:05;99544.19;;;6.82;92.51
13952;BME280;39535;52.192;9.886;2023-04-25T01:34:32;99545.22;;;6.74;92.62
13952;BME280;39535;52.192;9.886;2023-04-25T01:37:00;99532.28;;;6.71;93.10
13952;BME280;39535;52.192;9.886;2023-04-25T01:39:28;99512.56;;;6.63;93.54
13952;BME280;39535;52.192;9.886;2023-04-25T01:41:54;99502.94;;;6.69;93.96
13952;BME280;39535;52.192;9.886;2023-04-25T01:44:21;99498.16;;;6.46;95.36
13952;BME280;39535;52.192;9.886;2023-04-25T01:46:47;99478.16;;;6.54;95.41
13952;BME280;39535;52.192;9.886;2023-04-25T01:49:14;99459.19;;;6.51;96.25
13952;BME280;39535;52.192;9.886;2023-04-25T01:51:40;99455.94;;;6.38;96.75
13952;BME280;39535;52.192;9.886;2023-04-25T01:54:08;99442.72;;;6.53;96.69
13952;BME280;39535;52.192;9.886;2023-04-25T01:56:37;99438.13;;;6.68;96.20
13952;BME280;39535;52.192;9.886;2023-04-25T01:59:05;99446.78;;;6.68;96.76
13952;BME280;39535;52.192;9.886;2023-04-25T02:01:31;99450.91;;;6.77;96.40
13952;BME280;39535;52.192;9.886;2023-04-25T02:03:58;99462.00;;;6.84;94.77
13952;BME280;39535;52.192;9.886;2023-04-25T02:06:24;99475.38;;;6.64;96.06
13952;BME280;39535;52.192;9.886;2023-04-25T02:08:51;99482.38;;;6.59;95.45
13952;BME280;39535;52.192;9.886;2023-04-25T02:11:17;99466.56;;;6.72;95.83
13952;BME280;39535;52.192;9.886;2023-04-25T02:13:45;99474.13;;;6.83;95.95
13952;BME280;39535;52.192;9.886;2023-04-25T02:16:11;99485.66;;;6.68;95.90
13952;BME280;39535;52.192;9.886;2023-04-25T02:18:38;99481.44;;;6.64;96.25
13952;BME280;39535;52.192;9.886;2023-04-25T02:21:04;99481.34;;;6.69;95.68
13952;BME280;39535;52.192;9.886;2023-04-25T02:23:31;99477.25;;;6.54;97.61
13952;BME280;39535;52.192;9.886;2023-04-25T02:25:57;99450.69;;;6.43;98.91
13952;BME280;39535;52.192;9.886;2023-04-25T02:28:24;99421.94;;;6.56;99.33
13952;BME280;39535;52.192;9.886;2023-04-25T02:30:52;99407.34;;;6.51;99.89
13952;BME280;39535;52.192;9.886;2023-04-25T02:33:18;99393.78;;;6.36;100.00
13952;BME280;39535;52.192;9.886;2023-04-25T02:35:46;99364.06;;;6.08;100.00
13952;BME280;39535;52.192;9.886;2023-04-25T02:38:12;99330.22;;;6.19;100.00
13952;BME280;39535;52.192;9.886;2023-04-25T02:40:39;99305.00;;;6.27;100.00
13952;BME280;39535;52.192;9.886;2023-04-25T02:43:05;99304.19;;;6.23;100.00
13952;BME280;39535;52.192;9.886;2023-04-25T02:45:32;99303.56;;;6.10;100.00
13952;BME280;39535;52.192;9.886;2023-04-25T02:48:00;99290.69;;;6.07;100.00
13952;BME280;39535;52.192;9.886;2023-04-25T02:50:26;99287.88;;;6.18;100.00
13952;BME280;39535;52.192;9.886;2023-04-25T02:52:52;99294.22;;;6.05;100.00
13952;BME280;39535;52.192;9.886;2023-04-25T02:55:19;99291.75;;;5.94;100.00
13952;BME280;39535;52.192;9.886;2023-04-25T02:57:45;99289.84;;;6.07;100.00
13952;BME280;39535;52.192;9.886;2023-04-25T03:00:12;99290.84;;;5.98;100.00
13952;BME280;39535;52.192;9.886;2023-04-25T03:02:40;99298.34;;;6.13;100.00
13952;BME280;39535;52.192;9.886;2023-04-25T03:05:08;99321.56;;;6.18;100.00
13952;BME280;39535;52.192;9.886;2023-04-25T03:07:34;99312.25;;;6.09;100.00
13952;BME280;39535;52.192;9.886;2023-04-25T03:10:01;99333.34;;;5.86;100.00
13952;BME280;39535;52.192;9.886;2023-04-25T03:12:27;99348.97;;;5.80;100.00
13952;BME280;39535;52.192;9.886;2023-04-25T03:14:53;99352.63;;;5.70;100.00
13952;BME280;39535;52.192;9.886;2023-04-25T03:17:20;99351.19;;;5.52;100.00
13952;BME280;39535;52.192;9.886;2023-04-25T03:19:46;99349.47;;;5.51;100.00
13952;BME280;39535;52.192;9.886;2023-04-25T03:22:14;99353.81;;;5.49;100.00
13952;BME280;39535;52.192;9.886;2023-04-25T03:24:40;99356.47;;;5.46;100.00
13952;BME280;39535;52.192;9.886;2023-04-25T03:27:07;99363.31;;;5.48;100.00
13952;BME280;39535;52.192;9.886;2023-04-25T03:29:33;99369.44;;;5.43;100.00
13952;BME280;39535;52.192;9.886;2023-04-25T03:32:00;99373.78;;;5.39;100.00
13952;BME280;39535;52.192;9.886;2023-04-25T03:34:27;99383.28;;;5.38;100.00
13952;BME280;39535;52.192;9.886;2023-04-25T03:36:53;99385.97;;;5.34;100.00
13952;BME280;39535;52.192;9.886;2023-04-25T03:39:21;99385.00;;;5.41;100.00
13952;BME280;39535;52.192;9.886;2023-04-25T03:41:47;99395.38;;;5.38;100.00
13952;BME280;39535;52.192;9.886;2023-04-25T03:44:14;99397.09;;;5.39;100.00
13952;BME280;39535;52.192;9.886;2023-04-25T03:46:40;99392.03;;;5.31;100.00
13952;BME280;39535;52.192;9.886;2023-04-25T03:49:07;99387.72;;;5.30;100.00
13952;BME280;39535;52.192;9.886;2023-04-25T03:51:33;99387.66;;;5.35;100.00
13952;BME280;39535;52.192;9.886;2023-04-25T03:56:30;99390.28;;;5.33;100.00
13952;BME280;39535;52.192;9.886;2023-04-25T03:58:56;99386.09;;;5.25;100.00
13952;BME280;39535;52.192;9.886;2023-04-25T04:01:23;99382.63;;;5.27;100.00
13952;BME280;39535;52.192;9.886;2023-04-25T04:03:50;99389.47;;;5.31;100.00
13952;BME280;39535;52.192;9.886;2023-04-25T04:06:16;99389.41;;;5.34;100.00
13952;BME280;39535;52.192;9.886;2023-04-25T04:08:43;99397.94;;;5.41;100.00
13952;BME280;39535;52.192;9.886;2023-04-25T04:11:10;99397.91;;;5.43;100.00
13952;BME280;39535;52.192;9.886;2023-04-25T04:13:37;99401.38;;;5.42;100.00
13952;BME280;39535;52.192;9.886;2023-04-25T04:16:04;99417.66;;;5.48;100.00
13952;BME280;39535;52.192;9.886;2023-04-25T04:18:31;99431.44;;;5.49;100.00
13952;BME280;39535;52.192;9.886;2023-04-25T04:20:58;99446.06;;;5.53;100.00
13952;BME280;39535;52.192;9.886;2023-04-25T04:23:24;99459.06;;;5.48;100.00
13952;BME280;39535;52.192;9.886;2023-04-25T04:25:52;99465.25;;;5.40;100.00
13952;BME280;39535;52.192;9.886;2023-04-25T04:28:19;99469.47;;;5.45;100.00
13952;BME280;39535;52.192;9.886;2023-04-25T04:30:47;99469.47;;;5.45;100.00
13952;BME280;39535;52.192;9.886;2023-04-25T04:33:16;99483.25;;;5.47;100.00
13952;BME280;39535;52.192;9.886;2023-04-25T04:35:45;99488.47;;;5.43;100.00
13952;BME280;39535;52.192;9.886;2023-04-25T04:38:13;99488.53;;;5.38;100.00
13952;BME280;39535;52.192;9.886;2023-04-25T04:40:40;99503.19;;;5.39;100.00
13952;BME280;39535;52.192;9.886;2023-04-25T04:43:08;99493.63;;;5.44;100.00
13952;BME280;39535;52.192;9.886;2023-04-25T04:45:35;99502.22;;;5.48;100.00
13952;BME280;39535;52.192;9.886;2023-04-25T04:48:05;99512.59;;;5.45;100.00
13952;BME280;39535;52.192;9.886;2023-04-25T04:50:31;99522.94;;;5.45;100.00
13952;BME280;39535;52.192;9.886;2023-04-25T04:52:59;99529.03;;;5.44;100.00
13952;BME280;39535;52.192;9.886;2023-04-25T04:55:25;99542.75;;;5.49;100.00
13952;BME280;39535;52.192;9.886;2023-04-25T04:57:52;99560.81;;;5.53;100.00
13952;BME280;39535;52.192;9.886;2023-04-25T05:00:18;99575.34;;;5.65;100.00
13952;BME280;39535;52.192;9.886;2023-04-25T05:02:45;99589.09;;;5.69;100.00
13952;BME280;39535;52.192;9.886;2023-04-25T05:05:13;99606.44;;;5.64;100.00
13952;BME280;39535;52.192;9.886;2023-04-25T05:07:40;99614.19;;;5.65;100.00
13952;BME280;39535;52.192;9.886;2023-04-25T05:10:07;99615.03;;;5.67;100.00
13952;BME280;39535;52.192;9.886;2023-04-25T05:12:34;99630.56;;;5.64;100.00
13952;BME280;39535;52.192;9.886;2023-04-25T05:15:00;99634.91;;;5.64;100.00
13952;BME280;39535;52.192;9.886;2023-04-25T05:17:26;99636.72;;;5.55;100.00
13952;BME280;39535;52.192;9.886;2023-04-25T05:19:53;99649.66;;;5.55;100.00
13952;BME280;39535;52.192;9.886;2023-04-25T05:22:20;99659.09;;;5.61;100.00
13952;BME280;39535;52.192;9.886;2023-04-25T05:24:47;99672.00;;;5.63;100.00
13952;BME280;39535;52.192;9.886;2023-04-25T05:27:16;99674.56;;;5.67;100.00
13952;BME280;39535;52.192;9.886;2023-04-25T05:29:43;99690.19;;;5.58;100.00
13952;BME280;39535;52.192;9.886;2023-04-25T05:32:09;99687.59;;;5.58;100.00
13952;BME280;39535;52.192;9.886;2023-04-25T05:34:36;99693.56;;;5.65;100.00
13952;BME280;39535;52.192;9.886;2023-04-25T05:37:02;99703.03;;;5.67;100.00
13952;BME280;39535;52.192;9.886;2023-04-25T05:39:30;99716.69;;;5.82;98.67
13952;BME280;39535;52.192;9.886;2023-04-25T05:41:56;99733.94;;;5.83;98.84
13952;BME280;39535;52.192;9.886;2023-04-25T05:44:23;99747.75;;;5.83;98.68
13952;BME280;39535;52.192;9.886;2023-04-25T05:46:50;99758.00;;;5.94;97.62
13952;BME280;39535;52.192;9.886;2023-04-25T05:49:16;99781.31;;;5.97;96.98
13952;BME280;39535;52.192;9.886;2023-04-25T05:51:42;99807.16;;;6.02;96.34
13952;BME280;39535;52.192;9.886;2023-04-25T05:54:09;99821.91;;;5.95;95.57
13952;BME280;39535;52.192;9.886;2023-04-25T05:56:37;99855.56;;;5.96;95.17
13952;BME280;39535;52.192;9.886;2023-04-25T05:59:03;99882.34;;;5.99;93.02
13952;BME280;39535;52.192;9.886;2023-04-25T06:01:30;99884.03;;;6.03;93.53
13952;BME280;39535;52.192;9.886;2023-04-25T06:03:56;99916.00;;;5.94;90.64
13952;BME280;39535;52.192;9.886;2023-04-25T06:06:22;99984.19;;;5.94;88.92
13952;BME280;39535;52.192;9.886;2023-04-25T06:08:49;100010.03;;;6.13;87.64
13952;BME280;39535;52.192;9.886;2023-04-25T06:11:15;100049.69;;;6.18;86.39
13952;BME280;39535;52.192;9.886;2023-04-25T06:13:43;100072.13;;;6.28;87.04
13952;BME280;39535;52.192;9.886;2023-04-25T06:16:09;100105.88;;;6.16;85.44
13952;BME280;39535;52.192;9.886;2023-04-25T06:18:36;100149.97;;;6.08;84.93
13952;BME280;39535;52.192;9.886;2023-04-25T06:21:02;100150.03;;;5.93;84.48
13952;BME280;39535;52.192;9.886;2023-04-25T06:23:29;100175.00;;;6.09;84.59
13952;BME280;39535;52.192;9.886;2023-04-25T06:25:55;100185.38;;;6.06;84.20
13952;BME280;39535;52.192;9.886;2023-04-25T06:28:22;100219.84;;;6.24;81.71
13952;BME280;39535;52.192;9.886;2023-04-25T06:30:50;100244.84;;;6.34;82.31
13952;BME280;39535;52.192;9.886;2023-04-25T06:33:17;100239.72;;;6.31;82.06
13952;BME280;39535;52.192;9.886;2023-04-25T06:35:43;100269.97;;;6.30;80.65
13952;BME280;39535;52.192;9.886;2023-04-25T06:38:10;100279.50;;;6.19;81.59
13952;BME280;39535;52.192;9.886;2023-04-25T06:40:36;100277.81;;;6.07;82.83
13952;BME280;39535;52.192;9.886;2023-04-25T06:43:02;100277.78;;;6.15;82.18
13952;BME280;39535;52.192;9.886;2023-04-25T06:45:29;100275.19;;;6.16;82.03
13952;BME280;39535;52.192;9.886;2023-04-25T06:47:56;100251.00;;;6.16;83.85
13952;BME280;39535;52.192;9.886;2023-04-25T06:50:23;100253.56;;;6.18;83.38
13952;BME280;39535;52.192;9.886;2023-04-25T06:52:49;100239.75;;;6.25;83.57
13952;BME280;39535;52.192;9.886;2023-04-25T06:55:16;100269.03;;;6.39;80.41
13952;BME280;39535;52.192;9.886;2023-04-25T06:57:42;100307.09;;;6.31;79.28
13952;BME280;39535;52.192;9.886;2023-04-25T07:00:09;100332.13;;;6.40;77.77
13952;BME280;39535;52.192;9.886;2023-04-25T07:02:36;100345.81;;;6.69;79.17
13952;BME280;39535;52.192;9.886;2023-04-25T07:05:04;100342.31;;;6.80;80.05
13952;BME280;39535;52.192;9.886;2023-04-25T07:07:31;100344.88;;;6.89;78.37
13952;BME280;39535;52.192;9.886;2023-04-25T07:09:57;100382.06;;;6.91;74.28
13952;BME280;39535;52.192;9.886;2023-04-25T07:12:24;100431.28;;;7.06;75.24
13952;BME280;39535;52.192;9.886;2023-04-25T07:14:50;100446.88;;;7.00;75.90
13952;BME280;39535;52.192;9.886;2023-04-25T07:17:17;100509.16;;;7.08;71.59
13952;BME280;39535;52.192;9.886;2023-04-25T07:19:43;100580.13;;;6.93;68.67
13952;BME280;39535;52.192;9.886;2023-04-25T07:22:11;100638.06;;;6.90;68.83
13952;BME280;39535;52.192;9.886;2023-04-25T07:24:37;100664.00;;;7.03;70.42
13952;BME280;39535;52.192;9.886;2023-04-25T07:27:04;100664.00;;;7.00;69.16
13952;BME280;39535;52.192;9.886;2023-04-25T07:29:31;100688.25;;;7.00;68.49
13952;BME280;39535;52.192;9.886;2023-04-25T07:31:57;100696.88;;;6.93;69.89
13952;BME280;39535;52.192;9.886;2023-04-25T07:34:24;100688.25;;;6.85;69.14
13952;BME280;39535;52.192;9.886;2023-04-25T07:36:50;100692.56;;;7.09;69.08
13952;BME280;39535;52.192;9.886;2023-04-25T07:39:19;100670.03;;;7.32;71.71
13952;BME280;39535;52.192;9.886;2023-04-25T07:41:45;100647.50;;;7.45;72.04
13952;BME280;39535;52.192;9.886;2023-04-25T07:44:11;100645.78;;;7.38;69.45
13952;BME280;39535;52.192;9.886;2023-04-25T07:46:38;100672.63;;;7.40;69.72
13952;BME280;39535;52.192;9.886;2023-04-25T07:49:04;100677.81;;;7.49;67.71
13952;BME280;39535;52.192;9.886;2023-04-25T07:51:31;100699.44;;;7.47;67.73
13952;BME280;39535;52.192;9.886;2023-04-25T07:53:57;100726.25;;;7.56;67.61
13952;BME280;39535;52.192;9.886;2023-04-25T07:56:26;100726.25;;;7.58;69.35
13952;BME280;39535;52.192;9.886;2023-04-25T07:58:52;100715.03;;;7.51;70.77
13952;BME280;39535;52.192;9.886;2023-04-25T08:01:18;100676.94;;;7.47;72.09
13952;BME280;39535;52.192;9.886;2023-04-25T08:03:46;100652.75;;;7.11;71.65
13952;BME280;39535;52.192;9.886;2023-04-25T08:06:13;100660.56;;;6.85;71.33
13952;BME280;39535;52.192;9.886;2023-04-25T08:08:39;100633.75;;;6.85;71.74
13952;BME280;39535;52.192;9.886;2023-04-25T08:11:06;100613.84;;;6.97;72.57
13952;BME280;39535;52.192;9.886;2023-04-25T08:13:33;100627.69;;;7.01;67.45
13952;BME280;39535;52.192;9.886;2023-04-25T08:16:00;100670.94;;;7.07;67.63
13952;BME280;39535;52.192;9.886;2023-04-25T08:18:26;100667.47;;;7.12;69.47
13952;BME280;39535;52.192;9.886;2023-04-25T08:20:53;100664.84;;;7.31;70.81
13952;BME280;39535;52.192;9.886;2023-04-25T08:23:19;100661.41;;;7.23;67.64
13952;BME280;39535;52.192;9.886;2023-04-25T08:25:46;100722.84;;;7.05;66.34
13952;BME280;39535;52.192;9.886;2023-04-25T08:28:12;100731.50;;;7.33;66.54
13952;BME280;39535;52.192;9.886;2023-04-25T08:30:40;100772.19;;;7.36;64.63
13952;BME280;39535;52.192;9.886;2023-04-25T08:33:06;100792.09;;;7.35;65.31
13952;BME280;39535;52.192;9.886;2023-04-25T08:35:33;100803.31;;;7.39;63.39
13952;BME280;39535;52.192;9.886;2023-04-25T08:37:59;100857.00;;;7.34;62.92
13952;BME280;39535;52.192;9.886;2023-04-25T08:40:27;100857.00;;;7.52;65.26
13952;BME280;39535;52.192;9.886;2023-04-25T08:42:55;100845.75;;;7.70;65.16
13952;BME280;39535;52.192;9.886;2023-04-25T08:45:22;100897.69;;;7.30;61.51
13952;BME280;39535;52.192;9.886;2023-04-25T08:47:52;100932.31;;;7.45;60.69
13952;BME280;39535;52.192;9.886;2023-04-25T08:50:19;100972.19;;;7.62;59.21
13952;BME280;39535;52.192;9.886;2023-04-25T08:52:50;101011.16;;;7.67;59.58
13952;BME280;39535;52.192;9.886;2023-04-25T08:55:18;101017.28;;;7.90;61.40
13952;BME280;39535;52.192;9.886;2023-04-25T08:57:45;101011.22;;;7.85;60.38
13952;BME280;39535;52.192;9.886;2023-04-25T09:00:13;101016.41;;;8.02;60.63
13952;BME280;39535;52.192;9.886;2023-04-25T09:02:40;100999.09;;;7.98;58.74
13952;BME280;39535;52.192;9.886;2023-04-25T09:05:09;101025.97;;;8.22;60.51
13952;BME280;39535;52.192;9.886;2023-04-25T09:07:35;101030.28;;;8.30;60.74
13952;BME280;39535;52.192;9.886;2023-04-25T09:10:02;101013.81;;;7.98;58.73
13952;BME280;39535;52.192;9.886;2023-04-25T09:12:29;101057.13;;;7.82;58.51
13952;BME280;39535;52.192;9.886;2023-04-25T09:15:04;101085.56;;;7.43;59.76
13952;BME280;39535;52.192;9.886;2023-04-25T09:17:31;101060.53;;;7.62;62.88
13952;BME280;39535;52.192;9.886;2023-04-25T09:20:06;101032.59;;;7.09;62.83
13952;BME280;39535;52.192;9.886;2023-04-25T09:22:34;101004.06;;;7.13;63.86
13952;BME280;39535;52.192;9.886;2023-04-25T09:25:02;100982.50;;;7.24;64.18
13952;BME280;39535;52.192;9.886;2023-04-25T09:27:29;100966.00;;;7.12;64.46
13952;BME280;39535;52.192;9.886;2023-04-25T09:29:57;100937.47;;;7.14;65.24
13952;BME280;39535;52.192;9.886;2023-04-25T09:32:24;100908.09;;;7.33;65.35
13952;BME280;39535;52.192;9.886;2023-04-25T09:34:52;100877.78;;;7.46;65.94
13952;BME280;39535;52.192;9.886;2023-04-25T09:37:19;100853.56;;;7.40;65.07
13952;BME280;39535;52.192;9.886;2023-04-25T09:39:49;100816.28;;;7.76;63.70
13952;BME280;39535;52.192;9.886;2023-04-25T09:42:16;100864.78;;;8.00;62.55
13952;BME280;39535;52.192;9.886;2023-04-25T09:44:43;100870.84;;;8.02;56.98
13952;BME280;39535;52.192;9.886;2023-04-25T09:47:11;100997.31;;;7.79;58.53
13952;BME280;39535;52.192;9.886;2023-04-25T09:49:40;101026.78;;;7.65;57.54
13952;BME280;39535;52.192;9.886;2023-04-25T09:52:08;101046.69;;;7.62;58.58
13952;BME280;39535;52.192;9.886;2023-04-25T09:54:35;101060.50;;;7.61;59.18
13952;BME280;39535;52.192;9.886;2023-04-25T09:57:07;101063.13;;;7.59;57.17
13952;BME280;39535;52.192;9.886;2023-04-25T09:59:38;101103.00;;;7.72;58.48
13952;BME280;39535;52.192;9.886;2023-04-25T10:02:06;101096.06;;;7.71;57.31
13952;BME280;39535;52.192;9.886;2023-04-25T10:04:35;101120.31;;;7.74;56.02
13952;BME280;39535;52.192;9.886;2023-04-25T10:07:03;101119.50;;;7.77;55.22
13952;BME280;39535;52.192;9.886;2023-04-25T10:09:32;101163.72;;;7.89;57.11
13952;BME280;39535;52.192;9.886;2023-04-25T10:11:59;101151.53;;;7.82;58.15
13952;BME280;39535;52.192;9.886;2023-04-25T10:14:29;101153.31;;;7.92;59.00
13952;BME280;39535;52.192;9.886;2023-04-25T10:16:57;101122.97;;;7.84;59.21
13952;BME280;39535;52.192;9.886;2023-04-25T10:19:23;101117.69;;;7.64;59.24
13952;BME280;39535;52.192;9.886;2023-04-25T10:21:52;101094.41;;;7.98;59.60
13952;BME280;39535;52.192;9.886;2023-04-25T10:24:20;101054.59;;;8.17;58.94
13952;BME280;39535;52.192;9.886;2023-04-25T10:26:47;101071.97;;;8.43;59.60
13952;BME280;39535;52.192;9.886;2023-04-25T10:29:21;101049.41;;;8.72;59.10
13952;BME280;39535;52.192;9.886;2023-04-25T10:31:49;101060.69;;;8.44;57.43
13952;BME280;39535;52.192;9.886;2023-04-25T10:34:16;101056.31;;;8.72;56.82
13952;BME280;39535;52.192;9.886;2023-04-25T10:36:42;101067.56;;;8.89;56.97
13952;BME280;39535;52.192;9.886;2023-04-25T10:39:09;101097.97;;;8.69;57.39
13952;BME280;39535;52.192;9.886;2023-04-25T10:41:52;101109.25;;;8.54;57.55
13952;BME280;39535;52.192;9.886;2023-04-25T10:44:20;101115.25;;;8.28;58.44
13952;BME280;39535;52.192;9.886;2023-04-25T10:46:46;101097.94;;;8.38;59.10
13952;BME280;39535;52.192;9.886;2023-04-25T10:49:30;101091.84;;;8.07;58.73
13952;BME280;39535;52.192;9.886;2023-04-25T10:52:17;101087.41;;;7.70;60.72
13952;BME280;39535;52.192;9.886;2023-04-25T10:54:47;101075.28;;;7.68;60.37
13952;BME280;39535;52.192;9.886;2023-04-25T11:00:15;101025.84;;;7.46;61.20
13952;BME280;39535;52.192;9.886;2023-04-25T11:02:44;101012.84;;;7.43;61.68
13952;BME280;39535;52.192;9.886;2023-04-25T11:05:20;100980.84;;;7.58;62.27
13952;BME280;39535;52.192;9.886;2023-04-25T11:07:50;100974.81;;;7.59;62.79
13952;BME280;39535;52.192;9.886;2023-04-25T11:10:18;100917.66;;;7.79;62.91
13952;BME280;39535;52.192;9.886;2023-04-25T11:12:45;100927.16;;;7.92;60.87
13952;BME280;39535;52.192;9.886;2023-04-25T11:15:12;100949.69;;;7.96;61.88
13952;BME280;39535;52.192;9.886;2023-04-25T11:17:39;100948.81;;;8.08;60.30
13952;BME280;39535;52.192;9.886;2023-04-25T11:20:06;100949.69;;;8.04;59.84
13952;BME280;39535;52.192;9.886;2023-04-25T11:22:38;100973.97;;;8.05;59.39
13952;BME280;39535;52.192;9.886;2023-04-25T11:25:06;100999.09;;;8.16;59.63
13952;BME280;39535;52.192;9.886;2023-04-25T11:27:33;101006.91;;;8.21;61.13
13952;BME280;39535;52.192;9.886;2023-04-25T11:30:09;100988.72;;;8.01;61.78
13952;BME280;39535;52.192;9.886;2023-04-25T11:32:36;100968.78;;;8.09;61.45
13952;BME280;39535;52.192;9.886;2023-04-25T11:35:03;100967.03;;;8.11;59.80
13952;BME280;39535;52.192;9.886;2023-04-25T11:37:31;100981.75;;;8.12;60.32
13952;BME280;39535;52.192;9.886;2023-04-25T11:39:59;100987.84;;;8.27;60.57
13952;BME280;39535;52.192;9.886;2023-04-25T11:42:26;100953.69;;;9.34;57.21
13952;BME280;39535;52.192;9.886;2023-04-25T11:44:52;101013.44;;;9.70;56.05
13952;BME280;39535;52.192;9.886;2023-04-25T11:47:19;101081.44;;;9.07;55.00
13952;BME280;39535;52.192;9.886;2023-04-25T11:49:45;101143.94;;;9.10;57.49
13952;BME280;39535;52.192;9.886;2023-04-25T11:52:12;101110.09;;;8.85;58.09
13952;BME280;39535;52.192;9.886;2023-04-25T11:54:38;101126.59;;;8.53;58.87
13952;BME280;39535;52.192;9.886;2023-04-25T11:57:06;101102.28;;;8.39;60.19
13952;BME280;39535;52.192;9.886;2023-04-25T11:59:32;101068.44;;;8.36;60.62
13952;BME280;39535;52.192;9.886;2023-04-25T12:01:59;101066.72;;;8.26;61.53
13952;BME280;39535;52.192;9.886;2023-04-25T12:04:30;101044.97;;;7.81;60.17
13952;BME280;39535;52.192;9.886;2023-04-25T12:06:56;101044.13;;;7.77;61.78
13952;BME280;39535;52.192;9.886;2023-04-25T12:09:28;101010.31;;;7.71;63.58
13952;BME280;39535;52.192;9.886;2023-04-25T12:11:56;100982.47;;;7.22;66.00
13952;BME280;39535;52.192;9.886;2023-04-25T12:14:26;100894.19;;;7.18;69.31
13952;BME280;39535;52.192;9.886;2023-04-25T12:16:55;100781.69;;;7.08;70.21
13952;BME280;39535;52.192;9.886;2023-04-25T12:19:23;100714.22;;;6.88;71.51
13952;BME280;39535;52.192;9.886;2023-04-25T12:21:50;100660.53;;;6.64;71.91
13952;BME280;39535;52.192;9.886;2023-04-25T12:24:18;100616.44;;;6.93;71.98
13952;BME280;39535;52.192;9.886;2023-04-25T12:26:50;100593.06;;;7.16;72.17
13952;BME280;39535;52.192;9.886;2023-04-25T12:29:22;100571.31;;;7.46;70.31
13952;BME280;39535;52.192;9.886;2023-04-25T12:31:51;100594.72;;;7.39;69.58
13952;BME280;39535;52.192;9.886;2023-04-25T12:34:18;100616.28;;;7.59;69.32
13952;BME280;39535;52.192;9.886;2023-04-25T12:36:45;100627.41;;;7.95;68.62
13952;BME280;39535;52.192;9.886;2023-04-25T12:39:15;100646.34;;;8.19;66.33
13952;BME280;39535;52.192;9.886;2023-04-25T12:41:42;100707.94;;;8.00;62.61
13952;BME280;39535;52.192;9.886;2023-04-25T12:44:08;100741.47;;;8.64;60.11
13952;BME280;39535;52.192;9.886;2023-04-25T12:46:35;100823.31;;;9.47;58.85
13952;BME280;39535;52.192;9.886;2023-04-25T12:49:03;100907.19;;;9.97;56.04
13952;BME280;39535;52.192;9.886;2023-04-25T12:51:30;100996.31;;;10.49;55.79
13952;BME280;39535;52.192;9.886;2023-04-25T12:53:58;101033.38;;;10.87;52.05
13952;BME280;39535;52.192;9.886;2023-04-25T12:56:24;101166.72;;;10.68;48.26
13952;BME280;39535;52.192;9.886;2023-04-25T12:58:51;101279.88;;;10.67;48.34
13952;BME280;39535;52.192;9.886;2023-04-25T13:01:18;101380.91;;;10.44;50.46
13952;BME280;39535;52.192;9.886;2023-04-25T13:03:45;101411.38;;;10.23;49.12
13952;BME280;39535;52.192;9.886;2023-04-25T13:06:15;101457.47;;;10.18;50.59
13952;BME280;39535;52.192;9.886;2023-04-25T13:08:41;101464.44;;;9.71;50.20